Time;durP1;ratioP1;P1;durP2;ratioP2;P2;SDS_P1;SDS_P2;PMS_P1;PMS_P2;Temp;Humidity;BMP_temperature;BMP_pressure;BME280_temperature;BME280_humidity;BME280_pressure;Samples;Min_cycle;Max_cycle;Signal;HPM_P1;HPM_P2
2022/07/08 00:00:23;;;;;;;7.19;1.60;;;;;;;;;;4692630;28;10000801;-70
2022/07/08 00:02:49;;;;;;;5.88;1.45;;;;;;;;;;5045790;28;20024;-70
2022/07/08 00:05:15;;;;;;;8.05;1.50;;;;;;;;;;5046752;28;20022;-70
2022/07/08 00:07:41;;;;;;;10.93;2.25;;;;;;;;;;5036102;28;20025;-70
2022/07/08 00:10:07;;;;;;;8.02;1.75;;;;;;;;;;5040811;28;20025;-71
2022/07/08 00:12:33;;;;;;;7.40;1.60;;;;;;;;;;5040710;28;20425;-70
2022/07/08 00:14:59;;;;;;;7.55;1.60;;;;;;;;;;5047833;28;20033;-70
2022/07/08 00:17:27;;;;;;;7.45;1.58;;;;;;;;;;5035490;28;20538;-70
2022/07/08 00:19:53;;;;;;;6.95;1.75;;;;;;;;;;5033996;28;20037;-71
2022/07/08 00:22:19;;;;;;;8.82;1.77;;;;;;;;;;5040784;28;20404;-70
2022/07/08 00:24:45;;;;;;;13.90;2.10;;;;;;;;;;5042850;28;20029;-70
2022/07/08 00:27:13;;;;;;;11.88;2.47;;;;;;;;;;5040005;28;20078;-71
2022/07/08 00:29:39;;;;;;;9.65;2.10;;;;;;;;;;5045306;28;20104;-71
2022/07/08 00:32:05;;;;;;;8.43;1.60;;;;;;;;;;5041524;28;20520;-70
2022/07/08 00:34:31;;;;;;;11.27;2.13;;;;;;;;;;5043360;28;20037;-71
2022/07/08 00:36:57;;;;;;;7.70;1.38;;;;;;;;;;5033200;28;20508;-71
2022/07/08 00:39:23;;;;;;;11.05;1.90;;;;;;;;;;5042336;28;20032;-71
2022/07/08 00:41:49;;;;;;;9.80;1.80;;;;;;;;;;5034664;28;21052;-71
2022/07/08 00:44:16;;;;;;;11.27;2.13;;;;;;;;;;5040121;28;20038;-71
2022/07/08 00:46:41;;;;;;;12.15;1.77;;;;;;;;;;5043622;28;20017;-70
2022/07/08 00:49:07;;;;;;;8.18;1.73;;;;;;;;;;5040397;28;20447;-70
2022/07/08 00:51:34;;;;;;;13.52;1.80;;;;;;;;;;5036327;28;20025;-70
2022/07/08 00:54:00;;;;;;;6.85;1.65;;;;;;;;;;5039190;28;20036;-70
2022/07/08 00:56:27;;;;;;;12.45;1.60;;;;;;;;;;5045239;28;20151;-70
2022/07/08 00:58:54;;;;;;;7.72;2.05;;;;;;;;;;5041554;28;20036;-70
2022/07/08 01:01:21;;;;;;;7.50;1.67;;;;;;;;;;5046337;28;20067;-71
2022/07/08 01:03:47;;;;;;;10.88;1.70;;;;;;;;;;5038286;28;20031;-70
2022/07/08 01:06:14;;;;;;;10.95;1.70;;;;;;;;;;5044191;28;20017;-70
2022/07/08 01:08:40;;;;;;;13.30;1.98;;;;;;;;;;5041138;28;20561;-70
2022/07/08 01:11:09;;;;;;;12.75;1.77;;;;;;;;;;5040782;28;20477;-70
2022/07/08 01:13:36;;;;;;;7.10;1.52;;;;;;;;;;5044844;28;20025;-70
2022/07/08 01:16:02;;;;;;;9.90;1.67;;;;;;;;;;5043744;28;20051;-71
2022/07/08 01:18:30;;;;;;;12.30;1.88;;;;;;;;;;5038864;28;20106;-70
2022/07/08 01:20:56;;;;;;;10.30;1.70;;;;;;;;;;5038372;28;20447;-70
2022/07/08 01:23:22;;;;;;;8.43;1.65;;;;;;;;;;5037818;28;20033;-71
2022/07/08 01:25:48;;;;;;;7.45;1.55;;;;;;;;;;5041896;28;20066;-70
2022/07/08 01:28:15;;;;;;;11.07;2.03;;;;;;;;;;5040629;28;20036;-71
2022/07/08 01:30:41;;;;;;;12.57;1.85;;;;;;;;;;5043527;28;20033;-70
2022/07/08 01:33:07;;;;;;;14.32;2.22;;;;;;;;;;5035717;28;20025;-71
2022/07/08 01:35:34;;;;;;;9.52;1.77;;;;;;;;;;5034858;28;20057;-70
2022/07/08 01:37:59;;;;;;;11.85;1.75;;;;;;;;;;5043589;28;20492;-71
2022/07/08 01:40:25;;;;;;;12.45;2.00;;;;;;;;;;5036638;28;20024;-70
2022/07/08 01:42:51;;;;;;;12.45;2.28;;;;;;;;;;5033813;28;20025;-70
2022/07/08 01:45:17;;;;;;;10.30;1.92;;;;;;;;;;5029172;28;20029;-70
2022/07/08 01:47:43;;;;;;;12.35;2.22;;;;;;;;;;5042668;28;20104;-70
2022/07/08 01:50:10;;;;;;;10.40;1.90;;;;;;;;;;5031474;28;21066;-71
2022/07/08 01:52:36;;;;;;;12.55;2.10;;;;;;;;;;5033041;28;20021;-70
2022/07/08 01:55:02;;;;;;;9.63;1.75;;;;;;;;;;5029414;28;20540;-71
2022/07/08 01:57:28;;;;;;;17.13;2.22;;;;;;;;;;5037238;28;20037;-70
2022/07/08 01:59:54;;;;;;;10.07;1.70;;;;;;;;;;5034163;28;20028;-70
2022/07/08 02:02:21;;;;;;;12.18;1.83;;;;;;;;;;5031552;28;20037;-70
2022/07/08 02:04:47;;;;;;;8.88;1.70;;;;;;;;;;5038366;28;20053;-70
2022/07/08 02:07:13;;;;;;;10.60;2.08;;;;;;;;;;5042695;28;20485;-70
2022/07/08 02:09:40;;;;;;;9.60;2.05;;;;;;;;;;5042246;28;20032;-70
2022/07/08 02:12:18;;;;;;;13.43;2.20;;;;;;;;;;5045004;28;20029;-70
2022/07/08 02:14:51;;;;;;;11.85;2.28;;;;;;;;;;5039405;28;20037;-70
2022/07/08 02:17:18;;;;;;;8.00;1.60;;;;;;;;;;5040800;28;20489;-70
2022/07/08 02:19:45;;;;;;;11.25;1.65;;;;;;;;;;5040521;28;20211;-70
2022/07/08 02:22:11;;;;;;;9.48;1.98;;;;;;;;;;5040069;28;20029;-70
2022/07/08 02:24:37;;;;;;;12.25;2.35;;;;;;;;;;5039687;28;20493;-70
2022/07/08 02:27:04;;;;;;;14.43;2.35;;;;;;;;;;5038613;28;20055;-70
2022/07/08 02:29:31;;;;;;;10.07;1.98;;;;;;;;;;5039403;28;20025;-70
2022/07/08 02:31:56;;;;;;;7.25;1.80;;;14.30;99.90;;;;;;5038835;28;20385;-70
2022/07/08 02:34:22;;;;;;;11.13;1.80;;;14.30;99.90;;;;;;5037318;28;20041;-70
2022/07/08 02:36:48;;;;;;;10.40;1.83;;;14.20;99.90;;;;;;5040545;28;20081;-70
2022/07/08 02:39:13;;;;;;;12.70;2.13;;;14.20;99.90;;;;;;5043309;28;20079;-70
2022/07/08 02:41:40;;;;;;;9.30;2.00;;;14.20;99.90;;;;;;5042010;28;20532;-70
2022/07/08 02:44:06;;;;;;;12.93;2.00;;;14.10;99.90;;;;;;5043746;28;20033;-70
2022/07/08 02:46:35;;;;;;;8.38;1.80;;;14.10;99.90;;;;;;5046342;28;20063;-71
2022/07/08 02:49:01;;;;;;;12.95;2.05;;;14.10;99.90;;;;;;5036398;28;20381;-70
2022/07/08 02:51:27;;;;;;;11.82;2.03;;;14.10;99.90;;;;;;5041810;28;20059;-70
2022/07/08 02:53:53;;;;;;;10.32;2.10;;;14.00;99.90;;;;;;5042416;28;20116;-70
2022/07/08 02:56:19;;;;;;;11.35;1.80;;;14.00;99.90;;;;;;5041546;28;20103;-71
2022/07/08 02:58:44;;;;;;;14.13;2.20;;;14.00;99.90;;;;;;5038032;28;20084;-70
2022/07/08 03:01:10;;;;;;;11.77;2.25;;;14.00;99.90;;;;;;5034143;28;20226;-70
2022/07/08 03:03:35;;;;;;;11.55;2.15;;;14.00;99.90;;;;;;5042004;28;20025;-71
2022/07/08 03:06:01;;;;;;;15.13;2.45;;;14.00;99.90;;;;;;5035833;28;20128;-70
2022/07/08 03:08:27;;;;;;;10.90;1.95;;;14.00;99.90;;;;;;5043014;28;20434;-70
2022/07/08 03:10:52;;;;;;;14.80;2.17;;;14.00;99.90;;;;;;5042912;28;20021;-70
2022/07/08 03:13:18;;;;;;;10.02;1.60;;;13.90;99.90;;;;;;5038590;28;20704;-71
2022/07/08 03:15:44;;;;;;;11.40;1.95;;;13.90;99.90;;;;;;5038161;28;20021;-70
2022/07/08 03:18:09;;;;;;;13.82;2.33;;;13.90;99.90;;;;;;5047234;28;20544;-70
2022/07/08 03:20:35;;;;;;;12.43;1.88;;;13.80;99.90;;;;;;5040135;28;20029;-70
2022/07/08 03:23:01;;;;;;;7.88;1.77;;;13.80;99.90;;;;;;5038630;28;20027;-70
2022/07/08 03:25:29;;;;;;;7.18;1.50;;;13.80;99.90;;;;;;5041259;28;20033;-70
2022/07/08 03:27:55;;;;;;;5.90;1.50;;;13.80;99.90;;;;;;5049961;28;20037;-70
2022/07/08 03:30:20;;;;;;;9.43;1.77;;;13.80;99.90;;;;;;5042999;28;20047;-70
2022/07/08 03:32:46;;;;;;;9.63;1.67;;;13.90;99.90;;;;;;5043985;28;20029;-70
2022/07/08 03:35:11;;;;;;;13.70;2.00;;;13.90;99.90;;;;;;5025910;28;20437;-70
2022/07/08 03:37:44;;;;;;;9.75;1.67;;;13.90;99.90;;;;;;5021800;28;20478;-70
2022/07/08 03:42:55;;;;;;;10.30;1.52;;;13.80;99.90;;;;;;5022619;28;20041;-71
2022/07/08 03:45:21;;;;;;;10.00;1.70;;;13.80;99.90;;;;;;5025636;28;20017;-70
2022/07/08 03:47:47;;;;;;;11.38;1.83;;;13.80;99.90;;;;;;5042889;28;20033;-70
2022/07/08 03:50:13;;;;;;;12.10;1.80;;;13.90;99.90;;;;;;5039398;28;20373;-71
2022/07/08 03:52:39;;;;;;;9.48;1.70;;;13.90;99.90;;;;;;5039230;28;20021;-70
2022/07/08 03:55:05;;;;;;;7.55;1.58;;;13.90;99.90;;;;;;5043699;28;20025;-71
2022/07/08 03:57:31;;;;;;;8.68;2.00;;;13.90;99.90;;;;;;5040038;28;20036;-71
2022/07/08 03:59:56;;;;;;;7.68;1.38;;;14.00;99.90;;;;;;5040260;28;20086;-71
2022/07/08 04:02:22;;;;;;;13.73;1.48;;;14.00;99.90;;;;;;5038772;28;20032;-71
2022/07/08 04:04:48;;;;;;;9.48;1.85;;;14.00;99.90;;;;;;5029713;28;20030;-71
2022/07/08 04:07:14;;;;;;;12.98;2.10;;;14.00;99.90;;;;;;5041603;28;20443;-71
2022/07/08 04:09:40;;;;;;;12.25;1.65;;;14.00;99.90;;;;;;5037147;28;20324;-71
2022/07/08 04:12:06;;;;;;;11.52;1.58;;;14.00;99.90;;;;;;5043012;28;20025;-70
2022/07/08 04:14:31;;;;;;;8.68;1.90;;;14.10;99.90;;;;;;5031721;28;20060;-71
2022/07/08 04:16:57;;;;;;;7.45;1.30;;;14.00;99.90;;;;;;5042834;28;20060;-71
2022/07/08 04:19:23;;;;;;;8.45;1.50;;;14.00;99.90;;;;;;5034369;28;20025;-71
2022/07/08 04:21:49;;;;;;;6.15;1.60;;;14.10;99.90;;;;;;5034335;28;20052;-70
2022/07/08 04:24:15;;;;;;;10.90;1.65;;;14.10;99.90;;;;;;5045900;28;20032;-71
2022/07/08 04:26:40;;;;;;;13.18;1.95;;;14.10;99.90;;;;;;5043752;28;20067;-71
2022/07/08 04:29:06;;;;;;;8.93;1.70;;;14.20;99.90;;;;;;5032246;28;20037;-71
2022/07/08 04:31:32;;;;;;;12.57;1.67;;;14.20;99.90;;;;;;5041644;28;20032;-70
2022/07/08 04:33:57;;;;;;;8.60;1.65;;;14.30;99.90;;;;;;5037743;28;20383;-71
2022/07/08 04:36:23;;;;;;;9.23;1.50;;;14.20;99.90;;;;;;5043308;28;20035;-71
2022/07/08 04:38:49;;;;;;;11.45;1.58;;;14.20;99.90;;;;;;5041734;28;20029;-71
2022/07/08 04:41:15;;;;;;;7.07;1.35;;;14.20;99.90;;;;;;5044711;28;20033;-71
2022/07/08 04:43:43;;;;;;;9.80;2.17;;;14.20;99.90;;;;;;5041805;28;20068;-71
2022/07/08 04:46:10;;;;;;;7.40;1.67;;;14.20;99.90;;;;;;5034523;28;20037;-71
2022/07/08 04:48:36;;;;;;;12.60;1.90;;;14.20;99.90;;;;;;5035544;28;20041;-70
2022/07/08 04:51:02;;;;;;;7.80;1.55;;;14.20;99.90;;;;;;5039744;28;20067;-70
2022/07/08 04:53:28;;;;;;;10.13;1.75;;;14.20;99.90;;;;;;5042138;28;20045;-71
2022/07/08 04:55:54;;;;;;;10.40;1.83;;;14.20;99.90;;;;;;5032593;28;20075;-71
2022/07/08 04:58:20;;;;;;;8.38;1.58;;;14.30;99.90;;;;;;5042484;28;20033;-70
2022/07/08 05:00:45;;;;;;;9.95;1.73;;;14.30;99.90;;;;;;5033880;28;20056;-70
2022/07/08 05:03:11;;;;;;;8.60;1.70;;;14.40;99.90;;;;;;5029924;28;20132;-71
2022/07/08 05:05:36;;;;;;;10.38;1.95;;;14.40;99.90;;;;;;5036565;28;20292;-70
2022/07/08 05:08:02;;;;;;;10.30;1.90;;;14.40;99.90;;;;;;5033632;28;20125;-70
2022/07/08 05:10:29;;;;;;;8.90;1.80;;;14.50;99.90;;;;;;5033265;28;20204;-71
2022/07/08 05:12:57;;;;;;;11.27;1.70;;;14.50;99.90;;;;;;5040462;28;20053;-71
2022/07/08 05:15:23;;;;;;;8.40;1.50;;;14.50;99.90;;;;;;5034975;28;20520;-71
2022/07/08 05:17:49;;;;;;;11.95;1.83;;;14.50;99.90;;;;;;5041064;28;20396;-71
2022/07/08 05:20:15;;;;;;;9.60;2.03;;;14.50;99.90;;;;;;5038383;28;20028;-70
2022/07/08 05:22:40;;;;;;;6.45;1.63;;;14.50;99.90;;;;;;5042129;28;20032;-71
2022/07/08 05:25:08;;;;;;;9.88;2.00;;;14.60;99.90;;;;;;5036315;28;20025;-71
2022/07/08 05:27:34;;;;;;;10.05;1.50;;;14.60;99.90;;;;;;5037707;28;20032;-71
2022/07/08 05:29:59;;;;;;;10.40;1.65;;;14.60;99.90;;;;;;5034971;28;20283;-71
2022/07/08 05:32:26;;;;;;;7.68;1.48;;;14.60;99.90;;;;;;5040014;28;20021;-71
2022/07/08 05:34:51;;;;;;;11.80;1.75;;;14.60;99.90;;;;;;5041499;28;20147;-71
2022/07/08 05:37:17;;;;;;;9.50;2.33;;;14.60;99.90;;;;;;5039867;28;20131;-71
2022/07/08 05:39:43;;;;;;;11.05;2.00;;;14.70;99.90;;;;;;5038896;28;20040;-71
2022/07/08 05:42:10;;;;;;;14.43;1.77;;;14.70;99.90;;;;;;5043854;28;20115;-71
2022/07/08 05:44:37;;;;;;;10.43;1.90;;;14.70;99.90;;;;;;5043292;28;20037;-71
2022/07/08 05:47:04;;;;;;;6.70;1.65;;;14.70;99.90;;;;;;5042171;28;20464;-71
2022/07/08 05:49:30;;;;;;;7.00;1.90;;;14.70;99.90;;;;;;5035197;28;20041;-70
2022/07/08 05:51:56;;;;;;;7.50;1.73;;;14.80;99.90;;;;;;5027567;28;20029;-71
2022/07/08 05:54:22;;;;;;;7.45;1.70;;;14.90;99.90;;;;;;5040554;28;20025;-70
2022/07/08 05:56:48;;;;;;;9.07;1.63;;;14.90;99.90;;;;;;5034653;28;20481;-71
2022/07/08 05:59:14;;;;;;;7.28;1.48;;;14.90;99.90;;;;;;5032173;28;20040;-71
2022/07/08 06:01:39;;;;;;;8.15;1.80;;;15.00;99.90;;;;;;5039679;28;20029;-70
2022/07/08 06:04:05;;;;;;;11.02;1.80;;;15.00;99.90;;;;;;5038785;28;20456;-71
2022/07/08 06:06:30;;;;;;;7.72;1.73;;;15.10;99.90;;;;;;5040073;28;20700;-70
2022/07/08 06:08:56;;;;;;;9.75;1.77;;;15.10;99.90;;;;;;5036855;28;20111;-70
2022/07/08 06:11:22;;;;;;;8.45;1.52;;;15.20;99.90;;;;;;5039671;28;20623;-70
2022/07/08 06:13:47;;;;;;;13.45;2.00;;;15.20;99.90;;;;;;5040601;28;20036;-70
2022/07/08 06:16:13;;;;;;;6.20;1.60;;;15.20;99.90;;;;;;5044964;28;20032;-71
2022/07/08 06:18:39;;;;;;;8.13;1.75;;;15.30;99.90;;;;;;5045906;28;20021;-71
2022/07/08 06:21:05;;;;;;;6.15;1.50;;;15.30;99.90;;;;;;5036618;28;20068;-70
2022/07/08 06:23:31;;;;;;;8.02;1.63;;;15.40;99.90;;;;;;5045462;28;20040;-70
2022/07/08 06:25:57;;;;;;;6.28;1.30;;;15.40;99.90;;;;;;5045293;28;20497;-71
2022/07/08 06:28:23;;;;;;;8.77;1.55;;;15.40;99.90;;;;;;5046353;28;20134;-71
2022/07/08 06:30:49;;;;;;;7.45;1.48;;;15.50;99.90;;;;;;5039397;28;20025;-71
2022/07/08 06:33:14;;;;;;;7.18;1.70;;;15.60;99.90;;;;;;5043183;28;20055;-71
2022/07/08 06:35:40;;;;;;;10.50;1.95;;;15.70;99.90;;;;;;5046003;28;20081;-71
2022/07/08 06:38:06;;;;;;;6.85;1.20;;;15.80;99.90;;;;;;5047223;28;20504;-70
2022/07/08 06:40:32;;;;;;;9.70;1.45;;;15.90;99.90;;;;;;5043438;28;20041;-71
2022/07/08 06:42:57;;;;;;;7.95;1.60;;;15.90;99.90;;;;;;5042468;28;20033;-71
2022/07/08 06:45:23;;;;;;;11.18;2.08;;;15.80;99.90;;;;;;5039678;28;20327;-71
2022/07/08 06:47:48;;;;;;;8.85;1.63;;;15.80;99.90;;;;;;5041277;28;20032;-71
2022/07/08 06:50:14;;;;;;;6.80;1.40;;;15.70;99.90;;;;;;5039320;28;20024;-70
2022/07/08 06:52:40;;;;;;;8.55;1.67;;;15.60;99.90;;;;;;5042806;28;20051;-71
2022/07/08 06:55:06;;;;;;;7.45;1.35;;;15.60;99.90;;;;;;5044045;28;20021;-71
2022/07/08 06:57:32;;;;;;;6.50;1.65;;;15.60;99.90;;;;;;5043260;28;20112;-71
2022/07/08 06:59:57;;;;;;;5.45;1.60;;;15.70;99.90;;;;;;5036706;28;20033;-70
2022/07/08 07:02:23;;;;;;;9.30;1.85;;;15.80;99.90;;;;;;5035598;28;20148;-71
2022/07/08 07:04:48;;;;;;;7.35;1.60;;;15.80;99.90;;;;;;5045381;28;20056;-76
2022/07/08 07:07:14;;;;;;;11.40;1.88;;;15.80;99.90;;;;;;5043675;28;20021;-76
2022/07/08 07:09:40;;;;;;;7.40;1.73;;;15.90;99.90;;;;;;5043847;28;20025;-75
2022/07/08 07:12:06;;;;;;;13.05;2.13;;;16.00;99.90;;;;;;5046903;28;20385;-76
2022/07/08 07:14:33;;;;;;;8.30;1.58;;;16.00;99.90;;;;;;5045541;28;20017;-76
2022/07/08 07:16:59;;;;;;;9.45;1.83;;;16.10;99.90;;;;;;5043298;28;20512;-76
2022/07/08 07:19:25;;;;;;;7.90;1.63;;;16.20;99.90;;;;;;5038677;28;20538;-76
2022/07/08 07:21:50;;;;;;;7.18;1.85;;;16.20;99.90;;;;;;5044651;28;20131;-76
2022/07/08 07:24:16;;;;;;;4.90;1.50;;;16.20;99.90;;;;;;5035983;28;20067;-76
2022/07/08 07:26:42;;;;;;;6.97;1.70;;;16.20;99.90;;;;;;5035997;28;20029;-76
2022/07/08 07:29:09;;;;;;;4.45;1.40;;;16.20;99.90;;;;;;5037414;28;20040;-76
2022/07/08 07:31:36;;;;;;;8.45;1.60;;;16.40;99.90;;;;;;5057378;28;20033;-76
2022/07/08 07:34:02;;;;;;;6.43;1.90;;;16.60;99.90;;;;;;5035660;28;20031;-76
2022/07/08 07:36:28;;;;;;;8.68;1.50;;;16.70;99.90;;;;;;5034052;28;20061;-76
2022/07/08 07:38:54;;;;;;;6.85;2.03;;;16.80;99.90;;;;;;5039360;28;20033;-76
2022/07/08 07:41:19;;;;;;;7.70;1.50;;;16.80;99.90;;;;;;5036994;28;20024;-76
2022/07/08 07:43:45;;;;;;;10.27;1.90;;;16.90;99.90;;;;;;5045320;28;20035;-76
2022/07/08 07:46:11;;;;;;;7.32;1.30;;;17.00;99.90;;;;;;5042919;28;20033;-76
2022/07/08 07:48:36;;;;;;;9.95;1.40;;;17.10;99.90;;;;;;5036603;28;20458;-74
2022/07/08 07:51:02;;;;;;;10.98;1.40;;;17.10;99.90;;;;;;5046556;28;20027;-75
2022/07/08 07:53:28;;;;;;;8.63;1.48;;;17.20;99.90;;;;;;5043087;28;20051;-75
2022/07/08 07:55:53;;;;;;;11.98;1.63;;;17.30;99.90;;;;;;5047704;28;20064;-74
2022/07/08 07:58:20;;;;;;;4.97;1.20;;;17.70;99.90;;;;;;5037085;28;20035;-74
2022/07/08 08:00:46;;;;;;;7.18;1.20;;;18.10;99.90;;;;;;5042713;28;20021;-74
2022/07/08 08:03:11;;;;;;;6.85;1.38;;;18.30;99.90;;;;;;5040609;28;20039;-75
2022/07/08 08:05:39;;;;;;;5.20;1.17;;;18.30;99.90;;;;;;5042156;28;20028;-74
2022/07/08 08:08:05;;;;;;;7.03;1.48;;;18.30;99.90;;;;;;5046411;28;20758;-74
2022/07/08 08:10:31;;;;;;;7.78;1.38;;;18.30;99.90;;;;;;5038069;28;20067;-74
2022/07/08 08:12:56;;;;;;;5.93;1.55;;;18.20;99.50;;;;;;5040044;28;20258;-72
2022/07/08 08:15:23;;;;;;;7.65;1.40;;;18.00;99.90;;;;;;5046260;28;20040;-75
2022/07/08 08:17:49;;;;;;;9.50;1.58;;;17.90;99.90;;;;;;5043827;28;20075;-75
2022/07/08 08:20:14;;;;;;;7.32;1.38;;;17.80;99.20;;;;;;5044101;28;20025;-74
2022/07/08 08:22:40;;;;;;;6.82;1.33;;;18.00;98.60;;;;;;5038989;28;20017;-73
2022/07/08 08:25:06;;;;;;;6.95;1.17;;;18.50;98.50;;;;;;5047524;28;20091;-73
2022/07/08 08:27:32;;;;;;;7.07;1.00;;;19.20;97.70;;;;;;5041004;28;20041;-74
2022/07/08 08:29:57;;;;;;;6.35;1.30;;;19.70;95.40;;;;;;5033916;28;20028;-74
2022/07/08 08:32:23;;;;;;;2.47;1.00;;;19.90;94.80;;;;;;5026695;28;20036;-75
2022/07/08 08:34:49;;;;;;;7.25;1.48;;;19.70;95.10;;;;;;5042540;28;20033;-74
2022/07/08 08:37:14;;;;;;;3.40;1.20;;;19.50;94.40;;;;;;5044707;28;20540;-73
2022/07/08 08:39:40;;;;;;;6.80;1.27;;;19.20;95.00;;;;;;5040024;28;20020;-73
2022/07/08 08:42:07;;;;;;;8.73;1.40;;;18.90;95.10;;;;;;5042471;28;20489;-75
2022/07/08 08:44:33;;;;;;;6.03;1.30;;;18.70;95.00;;;;;;5039128;28;20041;-74
2022/07/08 08:47:02;;;;;;;4.68;1.20;;;18.50;95.40;;;;;;5039172;28;20477;-75
2022/07/08 08:49:34;;;;;;;8.57;1.27;;;18.50;96.00;;;;;;5038127;28;20036;-75
2022/07/08 08:52:02;;;;;;;4.00;1.30;;;18.60;95.70;;;;;;5041664;28;20076;-74
2022/07/08 08:54:32;;;;;;;9.05;1.48;;;18.50;95.50;;;;;;5039679;28;20049;-75
2022/07/08 08:56:58;;;;;;;7.55;1.50;;;18.60;95.40;;;;;;5035143;28;20480;-73
2022/07/08 08:59:24;;;;;;;8.73;1.58;;;18.90;94.50;;;;;;5029440;28;20132;-76
2022/07/08 09:01:50;;;;;;;6.72;1.10;;;19.10;94.30;;;;;;5033255;28;20033;-75
2022/07/08 09:04:18;;;;;;;6.30;1.52;;;19.40;94.30;;;;;;5043032;28;20116;-74
2022/07/08 09:06:43;;;;;;;4.32;1.15;;;19.70;94.60;;;;;;5036890;28;20307;-74
2022/07/08 09:09:09;;;;;;;7.40;1.48;;;20.00;93.40;;;;;;5043955;28;20032;-75
2022/07/08 09:11:34;;;;;;;6.05;1.38;;;20.40;93.10;;;;;;5043706;28;20108;-75
2022/07/08 09:14:20;;;;;;;7.47;1.27;;;20.50;92.00;;;;;;5035402;28;20045;-74
2022/07/08 09:17:17;;;;;;;4.43;0.90;;;20.80;91.60;;;;;;5040906;28;20037;-74
2022/07/08 09:19:50;;;;;;;6.65;1.23;;;20.80;90.50;;;;;;5039494;28;20484;-74
2022/07/08 09:22:16;;;;;;;7.43;1.42;;;21.10;90.40;;;;;;5038978;28;20063;-74
2022/07/08 09:24:43;;;;;;;6.68;1.30;;;21.30;88.30;;;;;;5039780;28;20501;-74
2022/07/08 09:27:11;;;;;;;6.07;1.40;;;21.50;85.70;;;;;;5041378;28;20036;-74
2022/07/08 09:29:57;;;;;;;7.80;1.20;;;21.50;86.30;;;;;;5040002;28;20107;-73
2022/07/08 09:32:22;;;;;;;5.28;1.35;;;21.50;85.10;;;;;;5038496;28;20679;-74
2022/07/08 09:34:48;;;;;;;4.22;1.02;;;21.60;87.20;;;;;;5040286;28;20183;-76
2022/07/08 09:37:15;;;;;;;7.30;1.40;;;21.70;85.50;;;;;;5042369;28;20033;-76
2022/07/08 09:39:42;;;;;;;6.35;1.20;;;21.80;83.60;;;;;;5037489;28;20037;-73
2022/07/08 09:42:09;;;;;;;9.70;1.30;;;21.80;83.10;;;;;;5040354;28;20068;-73
2022/07/08 09:44:38;;;;;;;6.07;1.30;;;21.80;80.60;;;;;;5043739;28;20218;-75
2022/07/08 09:47:14;;;;;;;4.55;1.15;;;21.70;81.80;;;;;;5042585;28;20043;-76
2022/07/08 09:49:45;;;;;;;6.72;1.20;;;21.80;82.10;;;;;;5036696;28;20029;-76
2022/07/08 09:52:18;;;;;;;5.35;1.25;;;21.90;83.00;;;;;;5042628;28;20060;-75
2022/07/08 09:54:44;;;;;;;6.00;1.05;;;22.10;82.40;;;;;;5043766;28;20039;-75
2022/07/08 09:57:11;;;;;;;6.38;1.42;;;22.10;81.10;;;;;;5035550;28;20025;-74
2022/07/08 09:59:37;;;;;;;7.10;1.10;;;21.70;79.80;;;;;;5028711;28;20037;-76
2022/07/08 10:02:03;;;;;;;4.22;0.93;;;21.30;81.90;;;;;;5036561;28;20064;-74
2022/07/08 10:04:30;;;;;;;4.60;1.20;;;21.20;80.50;;;;;;5037803;28;20561;-76
2022/07/08 10:06:57;;;;;;;5.63;1.10;;;21.20;80.90;;;;;;5040024;28;20334;-74
2022/07/08 10:09:24;;;;;;;6.88;1.10;;;21.30;77.90;;;;;;5035679;28;20071;-75
2022/07/08 10:11:51;;;;;;;4.47;1.20;;;21.30;78.50;;;;;;5042645;28;20028;-74
2022/07/08 10:14:18;;;;;;;4.80;1.00;;;21.40;79.50;;;;;;5047355;28;20417;-75
2022/07/08 10:16:47;;;;;;;5.25;0.93;;;21.40;79.00;;;;;;5043700;28;20491;-75
2022/07/08 10:19:30;;;;;;;2.85;0.70;;;21.30;81.30;;;;;;5030002;28;20040;-74
2022/07/08 10:21:58;;;;;;;7.20;1.10;;;21.40;82.20;;;;;;5037395;28;20086;-75
2022/07/08 10:24:29;;;;;;;8.82;1.40;;;21.60;80.50;;;;;;5043192;28;20029;-74
2022/07/08 10:26:59;;;;;;;4.43;1.13;;;21.70;80.80;;;;;;5038273;28;20029;-75
2022/07/08 10:29:29;;;;;;;5.68;1.20;;;21.60;81.20;;;;;;5039811;28;20066;-75
2022/07/08 10:31:56;;;;;;;7.28;1.48;;;21.70;81.60;;;;;;5037653;28;20155;-76
2022/07/08 10:34:33;;;;;;;5.70;1.30;;;21.90;79.20;;;;;;5040761;28;20045;-74
2022/07/08 10:37:00;;;;;;;4.75;1.10;;;22.00;78.90;;;;;;5040951;28;20041;-75
2022/07/08 10:39:36;;;;;;;6.20;1.20;;;22.10;80.40;;;;;;5031978;28;20701;-75
2022/07/08 10:42:07;;;;;;;5.53;1.15;;;22.20;80.10;;;;;;5043141;28;20040;-75
2022/07/08 10:44:45;;;;;;;6.68;1.02;;;22.00;77.20;;;;;;5041192;28;20028;-77
2022/07/08 10:47:12;;;;;;;4.90;1.00;;;22.10;77.20;;;;;;5041403;28;20131;-76
2022/07/08 10:49:42;;;;;;;8.85;1.27;;;22.20;76.30;;;;;;5037877;28;20056;-75
2022/07/08 10:52:08;;;;;;;7.03;1.20;;;22.20;78.30;;;;;;5034056;28;20063;-76
2022/07/08 10:54:37;;;;;;;8.75;1.25;;;22.20;76.00;;;;;;5044817;28;20070;-81
2022/07/08 10:57:26;;;;;;;5.85;1.25;;;22.20;75.30;;;;;;5040615;28;20029;-81
2022/07/08 11:00:14;;;;;;;4.30;0.90;;;22.20;77.20;;;;;;5019542;28;20094;-81
2022/07/08 11:02:44;;;;;;;6.28;1.25;;;22.30;77.90;;;;;;5039342;28;20037;-81
2022/07/08 11:05:35;;;;;;;4.30;0.98;;;22.30;76.50;;;;;;5045265;28;20554;-81
2022/07/08 11:08:19;;;;;;;3.28;0.95;;;22.30;77.20;;;;;;5037073;28;20247;-80
2022/07/08 11:10:45;;;;;;;4.32;0.90;;;22.50;76.40;;;;;;5043871;28;20060;-80
2022/07/08 11:13:11;;;;;;;5.10;1.25;;;22.70;77.50;;;;;;5046295;28;20017;-80
2022/07/08 11:15:37;;;;;;;6.38;1.20;;;22.80;76.00;;;;;;5042323;28;20044;-80
2022/07/08 11:18:03;;;;;;;4.70;0.93;;;22.90;74.20;;;;;;5042244;28;20079;-80
2022/07/08 11:20:32;;;;;;;5.25;1.10;;;22.80;74.90;;;;;;5034756;28;20079;-80
2022/07/08 11:23:03;;;;;;;6.60;1.02;;;23.00;74.90;;;;;;5038842;28;20037;-80
2022/07/08 11:25:29;;;;;;;4.80;1.20;;;23.30;75.10;;;;;;5046487;28;20060;-80
2022/07/08 11:27:54;;;;;;;3.33;0.90;;;23.50;74.00;;;;;;5038552;28;20067;-80
2022/07/08 11:30:20;;;;;;;5.57;1.13;;;23.50;74.70;;;;;;5029555;28;20452;-80
2022/07/08 11:32:50;;;;;;;6.50;1.20;;;23.50;74.80;;;;;;5043922;28;20037;-80
2022/07/08 11:35:17;;;;;;;4.35;1.00;;;23.50;75.90;;;;;;5040779;28;20084;-79
2022/07/08 11:37:46;;;;;;;6.57;1.00;;;23.70;93.70;;;;;;5043042;28;20040;-79
2022/07/08 11:40:16;;;;;;;5.68;1.27;;;24.00;90.60;;;;;;5039004;28;20033;-75
2022/07/08 11:42:42;;;;;;;4.20;1.05;;;24.30;69.90;;;;;;5037060;28;20490;-75
2022/07/08 11:45:12;;;;;;;5.75;1.00;;;24.30;70.60;;;;;;5046014;28;20033;-76
2022/07/08 11:47:39;;;;;;;3.45;0.80;;;24.30;70.60;;;;;;5045217;28;20059;-76
2022/07/08 11:50:09;;;;;;;6.38;1.10;;;24.30;71.70;;;;;;5044769;28;20041;-76
2022/07/08 11:52:35;;;;;;;6.07;1.10;;;24.40;70.50;;;;;;5044644;28;20025;-76
2022/07/08 11:55:01;;;;;;;8.13;1.20;;;24.60;70.20;;;;;;5053352;28;20467;-76
2022/07/08 11:57:28;;;;;;;5.68;1.42;;;24.60;69.00;;;;;;5028020;28;20095;-77
2022/07/08 11:59:54;;;;;;;7.80;1.10;;;24.40;70.00;;;;;;5026891;28;20477;-77
2022/07/08 12:02:23;;;;;;;6.20;1.17;;;24.20;70.80;;;;;;5028163;28;20068;-77
2022/07/08 12:04:51;;;;;;;4.60;0.98;;;24.20;70.90;;;;;;5048270;28;20129;-76
2022/07/08 12:07:25;;;;;;;5.78;1.05;;;24.20;71.30;;;;;;5036055;28;20069;-76
2022/07/08 12:09:59;;;;;;;3.05;0.85;;;24.30;70.70;;;;;;5038407;28;20548;-76
2022/07/08 12:12:26;;;;;;;3.92;1.00;;;24.40;70.60;;;;;;5049963;28;20029;-77
2022/07/08 12:14:53;;;;;;;6.07;1.05;;;24.70;71.70;;;;;;5061796;28;20047;-77
2022/07/08 12:17:23;;;;;;;2.90;0.88;;;25.10;69.30;;;;;;5047410;28;20480;-76
2022/07/08 12:19:52;;;;;;;6.72;0.90;;;25.50;69.60;;;;;;5034528;28;20039;-76
2022/07/08 12:22:44;;;;;;;5.07;1.20;;;25.90;68.70;;;;;;5053253;28;20043;-76
2022/07/08 12:25:09;;;;;;;3.95;0.93;;;26.30;65.60;;;;;;5037808;28;20043;-76
2022/07/08 12:27:35;;;;;;;5.93;0.90;;;26.30;64.60;;;;;;5042920;28;20115;-76
2022/07/08 12:30:05;;;;;;;4.97;0.90;;;26.20;65.40;;;;;;5037347;28;20496;-76
2022/07/08 12:32:41;;;;;;;4.82;0.85;;;25.90;65.30;;;;;;5048173;28;20037;-76
2022/07/08 12:35:09;;;;;;;3.05;1.00;;;25.90;65.90;;;;;;5030178;28;20061;-76
2022/07/08 12:37:35;;;;;;;3.47;1.00;;;26.00;66.20;;;;;;5037700;28;20025;-76
2022/07/08 12:40:19;;;;;;;4.22;1.17;;;26.10;66.00;;;;;;5042074;28;20029;-76
2022/07/08 12:43:05;;;;;;;5.88;0.88;;;25.90;65.30;;;;;;5044088;28;20029;-76
2022/07/08 12:45:31;;;;;;;8.95;1.30;;;25.50;66.90;;;;;;5046914;28;20029;-76
2022/07/08 12:47:58;;;;;;;7.30;0.90;;;25.30;67.70;;;;;;5043777;28;20493;-76
2022/07/08 12:50:25;;;;;;;4.85;0.80;;;25.10;68.20;;;;;;5044135;28;20037;-76
2022/07/08 12:52:51;;;;;;;3.95;0.85;;;25.00;69.20;;;;;;5046804;28;20036;-76
2022/07/08 12:55:17;;;;;;;5.13;1.00;;;25.10;70.20;;;;;;5035179;28;20025;-76
2022/07/08 12:57:42;;;;;;;6.57;0.80;;;25.00;69.30;;;;;;5045749;28;20028;-76
2022/07/08 13:00:09;;;;;;;6.07;0.93;;;24.90;69.70;;;;;;5051142;28;20057;-76
2022/07/08 13:02:34;;;;;;;5.78;0.93;;;24.80;70.60;;;;;;5042551;28;20025;-76
2022/07/08 13:05:00;;;;;;;3.17;0.82;;;24.90;70.30;;;;;;5056484;28;20028;-75